Schuylkill — WDD9655 — position and weather

sailwx.info

Track history (hours):
 
Tides and Currents Weather Stations Pressure Air Temp Water Temp Dewpoint Dewpoint Depression Visibility Wind Speed Wind Dir Waves Ship Positions

Schuylkill

Owner: Vane Line Bunkering, Philadelphia, PA. More information available from US FCC via Universal Licensing System and Coast Guard Vessel Documentation Center.

Last reported at 2017-Dec-18 16:30 UTC. Time now 2017-Dec-18 16:50 UTC.
Position N 39°54' W 075°12'.

Length 26 m; draft 4.2 m.

Type: Towing. MMSI: 367314490.

Date/timePositionNaut miles runAvg speedWind from/ knotsBaromVisibWave heightAir tempDewpointWater temp
2017-Dec-18 16:30N 39°54' W 075°12'0 0.0
2017-Dec-18 16:00N 39°54' W 075°12'0 0.0
2017-Dec-18 15:30N 39°54' W 075°12'0 0.0
2017-Dec-18 15:00N 39°54' W 075°12'0 0.0
2017-Dec-18 14:30N 39°54' W 075°12'0 0.0
2017-Dec-18 14:01N 39°54' W 075°12'1 1.3
2017-Dec-18 13:30N 39°54' W 075°12'0 0.2
2017-Dec-18 13:01N 39°54' W 075°12'1 1.2
2017-Dec-18 12:31N 39°54' W 075°12'0 0.0
2017-Dec-18 12:00N 39°54' W 075°12'0 0.0
2017-Dec-18 11:30N 39°54' W 075°12'0 0.0
2017-Dec-18 11:00N 39°54' W 075°12'0 0.0
2017-Dec-18 10:31N 39°54' W 075°12'0 0.0
2017-Dec-18 10:00N 39°54' W 075°12'0 0.0
2017-Dec-18 09:30N 39°54' W 075°12'0 0.0
2017-Dec-18 09:01N 39°54' W 075°12'0 0.0
2017-Dec-18 08:30N 39°54' W 075°12'0 0.0
2017-Dec-18 08:00N 39°54' W 075°12'0 0.0
2017-Dec-18 07:31N 39°54' W 075°12'0 0.0
2017-Dec-18 07:00N 39°54' W 075°12'0 0.0
2017-Dec-18 06:31N 39°54' W 075°12'0 0.0
2017-Dec-18 06:00N 39°54' W 075°12'0 0.0
2017-Dec-18 05:30N 39°54' W 075°12'0 0.0
2017-Dec-18 05:00N 39°54' W 075°12'0 0.0
2017-Dec-18 04:30N 39°54' W 075°12'0 0.0
2017-Dec-18 04:00N 39°54' W 075°12'0 0.0
2017-Dec-18 03:31N 39°54' W 075°12'0 0.0
2017-Dec-18 03:01N 39°54' W 075°12'0 0.0
2017-Dec-18 02:30N 39°54' W 075°12'0 0.0
2017-Dec-18 02:01N 39°54' W 075°12'0 0.0
2017-Dec-18 01:31N 39°54' W 075°12'0 0.0
2017-Dec-18 01:01N 39°54' W 075°12'0 0.0
2017-Dec-18 00:30N 39°54' W 075°12'0 0.0
2017-Dec-18 00:00N 39°54' W 075°12'0 0.0
2017-Dec-17 23:31N 39°54' W 075°12'0 0.0
2017-Dec-17 23:01N 39°54' W 075°12'0 0.0
2017-Dec-17 22:31N 39°54' W 075°12'0 0.0
2017-Dec-17 22:00N 39°54' W 075°12'0 0.0
2017-Dec-17 21:30N 39°54' W 075°12'0 0.0
2017-Dec-17 21:00N 39°54' W 075°12'0 0.0
2017-Dec-17 20:31N 39°54' W 075°12'0 0.0
2017-Dec-17 20:01N 39°54' W 075°12'0 0.0
2017-Dec-17 19:30N 39°54' W 075°12'0 0.0
2017-Dec-17 19:01N 39°54' W 075°12'0 0.0
2017-Dec-17 18:30N 39°54' W 075°12'0 0.0
2017-Dec-17 18:00N 39°54' W 075°12'0 0.0
2017-Dec-17 17:30N 39°54' W 075°12'0 0.0
2017-Dec-17 17:01N 39°54' W 075°12'0 0.0
2017-Dec-17 16:30N 39°54' W 075°12'0 0.0
2017-Dec-17 16:01N 39°54' W 075°12'0 0.0
2017-Dec-17 15:31N 39°54' W 075°12'0 0.0
2017-Dec-17 15:00N 39°54' W 075°12'0 0.0
2017-Dec-17 14:30N 39°54' W 075°12'0 0.2
2017-Dec-17 14:00N 39°54' W 075°12'2 3.8
2017-Dec-17 13:30N 39°52' W 075°13'3 5.5
2017-Dec-17 13:00N 39°51' W 075°16'2 4.5
2017-Dec-17 12:30N 39°51' W 075°19'3 6.7
2017-Dec-17 12:00N 39°49' W 075°23'3 6.8
2017-Dec-17 11:30N 39°47' W 075°27'3 6.7
2017-Dec-17 11:00N 39°45' W 075°30'3 6.4
2017-Dec-17 10:30N 39°42' W 075°31'3 6.2
2017-Dec-17 10:00N 39°39' W 075°33'3 5.6
2017-Dec-17 09:30N 39°37' W 075°34'3 5.9
2017-Dec-17 09:00N 39°34' W 075°33'5 9.6
2017-Dec-17 08:30N 39°33' W 075°39'5 9.3
2017-Dec-17 08:00N 39°32' W 075°45'4 8.2
2017-Dec-17 07:30N 39°32' W 075°51'4 8.3
2017-Dec-17 07:00N 39°30' W 075°55'4 7.8
2017-Dec-17 06:30N 39°27' W 075°59'4 7.3
2017-Dec-17 06:00N 39°25' W 076°02'3 7.0
2017-Dec-17 05:30N 39°23' W 076°06'3 6.7
2017-Dec-17 05:00N 39°21' W 076°10'3 6.6
2017-Dec-17 04:30N 39°19' W 076°13'3 6.9
2017-Dec-17 04:00N 39°15' W 076°14'3 7.0
2017-Dec-17 03:30N 39°12' W 076°16'3 6.5
2017-Dec-17 03:00N 39°10' W 076°19'3 5.8
2017-Dec-17 02:29N 39°07' W 076°20'7 7.8
2017-Dec-17 01:34N 38°60' W 076°23'0 7.7
2017-Dec-17 01:30N 38°60' W 076°23'10 0.2
2017-Dec-15 01:00N 38°50' W 076°27'5 6.2
2017-Dec-15 00:13N 38°55' W 076°25'22 3.8
2017-Dec-14 18:30N 39°15' W 076°33'0 0.0
2017-Dec-14 18:00N 39°15' W 076°33'0 0.0
2017-Dec-14 17:30N 39°15' W 076°33'0 0.0
2017-Dec-14 17:00N 39°15' W 076°33'0 0.0
2017-Dec-14 16:30N 39°15' W 076°33'0 0.0
2017-Dec-14 16:00N 39°15' W 076°33'0 0.0
2017-Dec-14 15:00N 39°15' W 076°33'0 0.1
2017-Dec-14 14:30N 39°15' W 076°33'0 0.0
2017-Dec-14 14:00N 39°15' W 076°33'0 0.0
2017-Dec-14 13:30N 39°15' W 076°33'0 0.0
2017-Dec-14 13:00N 39°15' W 076°33'0 0.0
2017-Dec-14 12:30N 39°15' W 076°33'0 0.0
2017-Dec-14 12:00N 39°15' W 076°33'0 0.0
2017-Dec-14 11:30N 39°15' W 076°33'0 0.0
2017-Dec-14 11:00N 39°15' W 076°33'0 0.0
2017-Dec-14 10:30N 39°15' W 076°33'0 0.0
2017-Dec-14 10:00N 39°15' W 076°33'0 0.0
2017-Dec-14 09:30N 39°15' W 076°33'0 0.0
2017-Dec-14 09:00N 39°15' W 076°33'0 0.0
2017-Dec-14 08:30N 39°15' W 076°33'0 0.0
2017-Dec-14 08:00N 39°15' W 076°33'0 0.0
2017-Dec-14 07:30N 39°15' W 076°33'0 0.0
2017-Dec-14 07:00N 39°16' W 076°33'0 0.0
2017-Dec-14 06:30N 39°15' W 076°33'0 0.0
2017-Dec-14 06:00N 39°15' W 076°33'0 0.0
2017-Dec-14 05:30N 39°15' W 076°33'0 0.1
2017-Dec-14 04:58N 39°15' W 076°33'0 0.0
2017-Dec-14 04:19N 39°15' W 076°33'0 0.0
2017-Dec-14 03:49N 39°15' W 076°33'0 0.0
2017-Dec-14 03:29N 39°15' W 076°33'0 0.0
2017-Dec-14 02:57N 39°15' W 076°33'0 0.0
2017-Dec-14 02:24N 39°15' W 076°33'0 0.0
2017-Dec-14 01:32N 39°15' W 076°33'0 0.0
2017-Dec-14 01:19N 39°15' W 076°33'0 0.0
2017-Dec-14 00:50N 39°15' W 076°33'0 0.0
2017-Dec-14 00:29N 39°15' W 076°33'0 0.0
2017-Dec-13 23:55N 39°15' W 076°33'0 0.0
2017-Dec-13 23:19N 39°15' W 076°33'0 0.0
2017-Dec-13 22:57N 39°15' W 076°33'0 0.0
2017-Dec-13 22:25N 39°15' W 076°33'0 0.0
2017-Dec-13 22:00N 39°15' W 076°33'0 0.1
2017-Dec-13 21:30N 39°15' W 076°33'0 0.0
2017-Dec-13 20:58N 39°15' W 076°33'0 0.0
2017-Dec-13 20:30N 39°15' W 076°33'0 0.0
2017-Dec-13 20:00N 39°15' W 076°33'0 0.0
2017-Dec-13 19:30N 39°15' W 076°33'0 0.0
2017-Dec-13 19:00N 39°15' W 076°33'0 0.0
2017-Dec-13 18:30N 39°15' W 076°33'0 0.0
2017-Dec-13 17:59N 39°15' W 076°33'0 0.0
2017-Dec-13 17:30N 39°15' W 076°33'0 0.0
2017-Dec-13 17:00N 39°15' W 076°33'0 0.0
2017-Dec-13 16:30N 39°15' W 076°33'0 0.0
2017-Dec-13 16:00N 39°15' W 076°33'0 0.0
2017-Dec-13 15:30N 39°15' W 076°33'0 0.0
2017-Dec-13 15:00N 39°15' W 076°33'0 0.0
2017-Dec-13 14:30N 39°15' W 076°33'0 0.0
2017-Dec-13 14:00N 39°15' W 076°33'0 0.0
2017-Dec-13 13:30N 39°15' W 076°33'0 0.0
2017-Dec-13 13:00N 39°15' W 076°33'0 0.0
2017-Dec-13 12:30N 39°15' W 076°33'0 0.0
2017-Dec-13 11:59N 39°15' W 076°33'0 0.0
2017-Dec-13 11:30N 39°15' W 076°33'0 0.0
2017-Dec-13 11:00N 39°15' W 076°33'0 0.0
2017-Dec-13 10:30N 39°15' W 076°33'0 0.0
2017-Dec-13 10:00N 39°15' W 076°33'0 0.0
2017-Dec-13 09:30N 39°15' W 076°33'0 0.0
2017-Dec-13 09:00N 39°15' W 076°33'0 0.0
2017-Dec-13 08:30N 39°15' W 076°33'0 0.0
2017-Dec-13 08:00N 39°15' W 076°33'0 0.0
2017-Dec-13 07:30N 39°15' W 076°33'0 0.0
2017-Dec-13 07:00N 39°15' W 076°33'0 0.0
2017-Dec-13 06:30N 39°15' W 076°33'0 0.0
2017-Dec-13 06:00N 39°15' W 076°33'0 0.0
2017-Dec-13 05:30N 39°15' W 076°33'0 0.0
2017-Dec-13 05:00N 39°15' W 076°33'0 0.0
2017-Dec-13 04:30N 39°15' W 076°33'0 0.0
2017-Dec-13 04:00N 39°15' W 076°33'1 2.2
2017-Dec-13 03:30N 39°15' W 076°34'0 0.0
2017-Dec-13 03:00N 39°15' W 076°34'0 0.0
2017-Dec-13 02:30N 39°15' W 076°34'0 0.0
2017-Dec-13 02:00N 39°15' W 076°34'0 0.0
2017-Dec-13 01:30N 39°15' W 076°34'0 0.0
2017-Dec-13 01:00N 39°15' W 076°34'0 0.0
2017-Dec-13 00:30N 39°15' W 076°34'0 0.0
2017-Dec-13 00:00N 39°15' W 076°34'0 0.1
2017-Dec-12 23:30N 39°15' W 076°34'0 0.0
2017-Dec-12 23:00N 39°15' W 076°34'0 0.0
2017-Dec-12 22:30N 39°15' W 076°34'0 0.0
2017-Dec-12 22:00N 39°15' W 076°34'0 0.0
2017-Dec-12 21:30N 39°15' W 076°34'1 2.1
2017-Dec-12 21:00N 39°15' W 076°33'0 0.0
2017-Dec-12 20:30N 39°15' W 076°33'0 0.0
2017-Dec-12 20:00N 39°15' W 076°33'0 0.0
2017-Dec-12 19:30N 39°15' W 076°33'0 0.0
2017-Dec-12 19:00N 39°15' W 076°33'0 0.0
2017-Dec-12 18:30N 39°15' W 076°33'0 0.0
2017-Dec-12 18:00N 39°15' W 076°33'0 0.0
2017-Dec-12 17:30N 39°15' W 076°33'0 0.0
2017-Dec-12 17:00N 39°15' W 076°33'0 0.0
2017-Dec-12 16:30N 39°15' W 076°33'0 0.0
2017-Dec-12 16:00N 39°15' W 076°33'0 0.0
2017-Dec-12 15:30N 39°15' W 076°33'0 0.0
2017-Dec-12 15:00N 39°15' W 076°33'0 0.0
2017-Dec-12 14:30N 39°15' W 076°33'0 0.0
2017-Dec-12 14:00N 39°15' W 076°33'0 0.0
2017-Dec-12 13:30N 39°15' W 076°33'0 0.0
2017-Dec-12 13:00N 39°15' W 076°33'0 0.0
2017-Dec-12 12:30N 39°15' W 076°33'0 0.0
2017-Dec-12 12:00N 39°15' W 076°33'0 0.0
2017-Dec-12 11:30N 39°15' W 076°33'0 0.0
2017-Dec-12 10:54N 39°15' W 076°33'0 0.0
2017-Dec-12 10:30N 39°15' W 076°33'0 0.0
2017-Dec-12 09:59N 39°15' W 076°33'0 0.0
2017-Dec-12 09:28N 39°15' W 076°33'0 0.0
2017-Dec-12 09:00N 39°15' W 076°33'0 0.0
2017-Dec-12 08:30N 39°15' W 076°33'0 0.0
2017-Dec-12 07:58N 39°15' W 076°33'0 0.0
2017-Dec-12 07:30N 39°15' W 076°33'0 0.0
2017-Dec-12 07:00N 39°15' W 076°33'0 0.0
2017-Dec-12 06:30N 39°15' W 076°33'0 0.0
2017-Dec-12 05:59N 39°15' W 076°33'0 0.0
2017-Dec-12 05:30N 39°15' W 076°33'0 0.0
2017-Dec-12 05:00N 39°15' W 076°33'0 0.0
2017-Dec-12 04:30N 39°15' W 076°33'1 2.9
2017-Dec-12 04:00N 39°14' W 076°33'4 7.9
2017-Dec-12 03:30N 39°12' W 076°29'3 6.4
2017-Dec-12 03:00N 39°12' W 076°25'4 6.5
2017-Dec-12 02:20N 39°14' W 076°20'3 6.7
2017-Dec-12 01:51N 39°16' W 076°16'4 7.4
2017-Dec-12 01:19N 39°19' W 076°13'3 8.8
2017-Dec-12 01:00N 39°21' W 076°11'4 8.8
2017-Dec-12 00:30N 39°23' W 076°06'4 8.3
2017-Dec-12 00:00N 39°25' W 076°01'4 8.3
2017-Dec-11 23:30N 39°28' W 075°58'4 7.8
2017-Dec-11 23:00N 39°31' W 075°54'4 7.1
2017-Dec-11 22:30N 39°32' W 075°49'3 6.0
2017-Dec-11 22:00N 39°32' W 075°45'3 6.8
2017-Dec-11 21:30N 39°33' W 075°41'3 6.3
2017-Dec-11 21:01N 39°33' W 075°37'3 6.1
2017-Dec-11 20:30N 39°34' W 075°33'2 4.5
2017-Dec-11 20:00N 39°35' W 075°36'0 0.0
2017-Dec-11 19:30N 39°35' W 075°36'0 0.0
2017-Dec-11 19:00N 39°35' W 075°36'0 0.0
2017-Dec-11 18:30N 39°35' W 075°36'0 0.0
2017-Dec-11 18:00N 39°35' W 075°36'0 0.0
2017-Dec-11 17:30N 39°35' W 075°36'0 0.0
2017-Dec-11 17:00N 39°35' W 075°36'0 0.0
2017-Dec-11 16:31N 39°35' W 075°36'0 0.0
2017-Dec-11 16:00N 39°35' W 075°36'0 0.0
2017-Dec-11 15:30N 39°35' W 075°36'0 0.0
2017-Dec-11 15:00N 39°35' W 075°36'0 0.0
2017-Dec-11 14:30N 39°35' W 075°36'0 0.0
2017-Dec-11 14:00N 39°35' W 075°36'0 0.0
2017-Dec-11 13:30N 39°35' W 075°36'0 0.0
2017-Dec-11 13:00N 39°35' W 075°36'0 0.0
2017-Dec-11 12:30N 39°35' W 075°36'0 0.0
2017-Dec-11 12:00N 39°35' W 075°36'0 0.0
2017-Dec-11 11:30N 39°35' W 075°36'0 0.0
2017-Dec-11 11:00N 39°35' W 075°36'0 0.0
2017-Dec-11 10:30N 39°35' W 075°36'0 0.0
2017-Dec-11 10:00N 39°35' W 075°36'0 0.0
2017-Dec-11 09:30N 39°35' W 075°36'0 0.0
2017-Dec-11 09:00N 39°35' W 075°36'0 0.0
2017-Dec-11 08:30N 39°35' W 075°36'0 0.0
2017-Dec-11 08:00N 39°35' W 075°36'0 0.0
2017-Dec-11 07:30N 39°35' W 075°36'0 0.0
2017-Dec-11 07:00N 39°35' W 075°36'0 0.0
2017-Dec-11 06:30N 39°35' W 075°36'0 0.1
2017-Dec-11 06:01N 39°35' W 075°36'2 4.3
2017-Dec-11 05:30N 39°34' W 075°33'0 0.6
2017-Dec-11 05:00N 39°35' W 075°33'0 0.0
2017-Dec-11 04:30N 39°35' W 075°33'0 0.0
2017-Dec-11 04:00N 39°35' W 075°33'0 0.0
2017-Dec-11 03:30N 39°35' W 075°33'0 0.0
2017-Dec-11 03:00N 39°35' W 075°33'0 0.0
2017-Dec-11 02:31N 39°35' W 075°33'0 0.1
2017-Dec-11 02:00N 39°35' W 075°33'0 0.1
2017-Dec-11 01:30N 39°35' W 075°33'0 0.1
2017-Dec-11 01:00N 39°35' W 075°33'0 0.1
2017-Dec-11 00:30N 39°35' W 075°33'0 0.0
2017-Dec-11 00:00N 39°35' W 075°33'0 0.0
2017-Dec-10 23:30N 39°35' W 075°33'0 0.0
2017-Dec-10 23:00N 39°35' W 075°33'0 0.0
2017-Dec-10 22:30N 39°35' W 075°33'0 0.0
2017-Dec-10 22:00N 39°35' W 075°33'0 0.0
2017-Dec-10 21:30N 39°35' W 075°33'0 0.0
2017-Dec-10 21:00N 39°35' W 075°33'0 0.0
2017-Dec-10 20:30N 39°35' W 075°33'0 0.0
2017-Dec-10 20:00N 39°35' W 075°33'0 0.0
2017-Dec-10 19:30N 39°35' W 075°33'0 0.1
2017-Dec-10 19:00N 39°35' W 075°33'0 0.0
2017-Dec-10 18:30N 39°35' W 075°33'0 0.1
2017-Dec-10 18:00N 39°35' W 075°33'0 0.0
2017-Dec-10 17:30N 39°35' W 075°33'0 0.0
2017-Dec-10 17:00N 39°35' W 075°33'0 0.0
2017-Dec-10 16:30N 39°35' W 075°33'0 0.0
2017-Dec-10 16:00N 39°35' W 075°33'0 0.0
2017-Dec-10 15:30N 39°35' W 075°33'0 0.0
2017-Dec-10 15:00N 39°35' W 075°33'0 0.0
2017-Dec-10 14:30N 39°35' W 075°33'0 0.0
2017-Dec-10 14:00N 39°35' W 075°33'0 0.0
2017-Dec-10 13:30N 39°35' W 075°33'0 0.0
2017-Dec-10 13:00N 39°35' W 075°33'0 0.0
2017-Dec-10 12:30N 39°35' W 075°33'0 0.0
2017-Dec-10 12:00N 39°35' W 075°33'0 0.0
2017-Dec-10 11:30N 39°35' W 075°33'0 0.0
2017-Dec-10 11:00N 39°35' W 075°33'0 0.1
2017-Dec-10 10:30N 39°35' W 075°33'0 0.0
2017-Dec-10 10:00N 39°35' W 075°33'0 0.1
2017-Dec-10 09:30N 39°35' W 075°33'0 0.1
2017-Dec-10 09:00N 39°35' W 075°33'0 0.0
2017-Dec-10 08:30N 39°35' W 075°33'0 0.0
2017-Dec-10 08:00N 39°35' W 075°33'0 0.0
2017-Dec-10 07:30N 39°35' W 075°33'0 0.1
2017-Dec-10 07:00N 39°35' W 075°33'0 0.2
2017-Dec-10 06:30N 39°35' W 075°33'0 0.1
2017-Dec-10 06:00N 39°35' W 075°33'0 0.1
2017-Dec-10 05:30N 39°35' W 075°33'0 0.0
2017-Dec-10 05:00N 39°35' W 075°33'0 0.0
2017-Dec-10 04:30N 39°35' W 075°33'0 0.0
2017-Dec-10 04:00N 39°35' W 075°33'0 0.0
2017-Dec-10 03:30N 39°35' W 075°33'0 0.0
2017-Dec-10 03:00N 39°35' W 075°33'0 0.0
2017-Dec-10 02:30N 39°35' W 075°33'0 0.0
2017-Dec-10 02:00N 39°35' W 075°33'0 0.0
2017-Dec-10 01:30N 39°35' W 075°33'0 0.0
2017-Dec-10 01:00N 39°35' W 075°33'0 0.0
2017-Dec-10 00:30N 39°35' W 075°33'0 0.0
2017-Dec-10 00:00N 39°35' W 075°33'0 0.1
2017-Dec-09 23:30N 39°35' W 075°33'0 0.0
2017-Dec-09 23:00N 39°35' W 075°33'0 0.0
2017-Dec-09 22:30N 39°35' W 075°33'0 0.3
2017-Dec-09 22:00N 39°35' W 075°33'0 0.2
2017-Dec-09 21:30N 39°35' W 075°33'0 0.0
2017-Dec-09 21:00N 39°35' W 075°33'0 0.0
2017-Dec-09 20:30N 39°35' W 075°33'0 0.0
2017-Dec-09 20:00N 39°35' W 075°33'0 0.0
2017-Dec-09 19:30N 39°35' W 075°33'0 0.0
2017-Dec-09 19:00N 39°35' W 075°33'0 0.0
2017-Dec-09 18:30N 39°35' W 075°33'0 0.2
2017-Dec-09 18:00N 39°35' W 075°33'0 0.2
2017-Dec-09 17:30N 39°35' W 075°33'0 0.1
2017-Dec-09 17:00N 39°35' W 075°33'0 0.0
2017-Dec-09 16:30N 39°35' W 075°33'0 0.0
2017-Dec-09 16:00N 39°35' W 075°33'0 0.0
2017-Dec-09 15:30N 39°35' W 075°33'0 0.0
2017-Dec-09 15:00N 39°35' W 075°33'0 0.0
2017-Dec-09 14:30N 39°35' W 075°33'0 0.0
2017-Dec-09 14:00N 39°35' W 075°33'0 0.0
2017-Dec-09 13:30N 39°35' W 075°33'0 0.0
2017-Dec-09 13:01N 39°35' W 075°33'0 0.0
2017-Dec-09 12:30N 39°35' W 075°33'0 0.0
2017-Dec-09 12:00N 39°35' W 075°33'0 0.1
2017-Dec-09 11:30N 39°35' W 075°33'0 0.1
2017-Dec-09 11:00N 39°35' W 075°33'0 0.2
2017-Dec-09 10:30N 39°35' W 075°33'0 0.1
2017-Dec-09 10:00N 39°35' W 075°33'0 0.0
2017-Dec-09 09:30N 39°35' W 075°33'1 2.1
2017-Dec-09 09:00N 39°34' W 075°33'4 7.8
2017-Dec-09 08:30N 39°33' W 075°38'4 7.9
2017-Dec-09 08:00N 39°33' W 075°44'4 8.4
2017-Dec-09 07:30N 39°32' W 075°49'4 8.1
2017-Dec-09 07:00N 39°31' W 075°54'4 8.8
2017-Dec-09 06:30N 39°28' W 075°58'4 8.9
2017-Dec-09 06:00N 39°25' W 076°02'5 9.0
2017-Dec-09 05:30N 39°22' W 076°07'5 9.3
2017-Dec-09 05:00N 39°19' W 076°12'4 8.6
2017-Dec-09 04:30N 39°16' W 076°16'5 8.5
2017-Dec-09 03:58N 39°14' W 076°21'5 8.3
2017-Dec-09 03:24N 39°11' W 076°26'3 7.9
2017-Dec-09 03:00N 39°12' W 076°30'4 8.2
2017-Dec-09 02:31N 39°15' W 076°33'1 1.2
2017-Dec-09 02:01N 39°15' W 076°34'0 0.1
2017-Dec-09 01:30N 39°15' W 076°34'0 0.0
2017-Dec-09 01:00N 39°15' W 076°34'0 0.0
2017-Dec-09 00:30N 39°15' W 076°34'0 0.0
2017-Dec-09 00:00N 39°15' W 076°34'0 0.0
2017-Dec-08 23:30N 39°15' W 076°34'0 0.0
2017-Dec-08 23:00N 39°15' W 076°34'0 0.0
2017-Dec-08 22:30N 39°15' W 076°34'0 0.0
2017-Dec-08 22:00N 39°15' W 076°34'0 0.0
2017-Dec-08 21:30N 39°15' W 076°34'0 0.0
2017-Dec-08 21:00N 39°15' W 076°34'1 1.3
2017-Dec-08 20:30N 39°14' W 076°33'1 2.1
2017-Dec-08 20:00N 39°15' W 076°33'0 0.2
2017-Dec-08 19:30N 39°16' W 076°33'0 0.0
2017-Dec-08 19:00N 39°16' W 076°33'1 2.4
2017-Dec-08 18:30N 39°15' W 076°34'0 0.0
2017-Dec-08 18:00N 39°15' W 076°34'0 0.0
2017-Dec-08 17:30N 39°15' W 076°34'0 0.0
2017-Dec-08 17:00N 39°15' W 076°34'  
Track history (hours):
 
Tides and Currents Weather Stations Pressure Air Temp Water Temp Dewpoint Dewpoint Depression Visibility Wind Speed Wind Dir Waves Ship Positions

Schuylkill

Owner: Vane Line Bunkering, Philadelphia, PA. More information available from US FCC via Universal Licensing System and Coast Guard Vessel Documentation Center.

Last reported at 2017-Dec-18 16:30 UTC. Time now 2017-Dec-18 16:50 UTC.
Position N 39°54' W 075°12'.

Length 26 m; draft 4.2 m.

Type: Towing. MMSI: 367314490.

Date/timePositionNaut miles runAvg speedWind from/ knotsBaromVisibWave heightAir tempDewpointWater temp
2017-Dec-18 16:30N 39°54' W 075°12'0 0.0
2017-Dec-18 16:00N 39°54' W 075°12'0 0.0
2017-Dec-18 15:30N 39°54' W 075°12'0 0.0
2017-Dec-18 15:00N 39°54' W 075°12'0 0.0
2017-Dec-18 14:30N 39°54' W 075°12'0 0.0
2017-Dec-18 14:01N 39°54' W 075°12'1 1.3
2017-Dec-18 13:30N 39°54' W 075°12'0 0.2
2017-Dec-18 13:01N 39°54' W 075°12'1 1.2
2017-Dec-18 12:31N 39°54' W 075°12'0 0.0
2017-Dec-18 12:00N 39°54' W 075°12'0 0.0
2017-Dec-18 11:30N 39°54' W 075°12'0 0.0
2017-Dec-18 11:00N 39°54' W 075°12'0 0.0
2017-Dec-18 10:31N 39°54' W 075°12'0 0.0
2017-Dec-18 10:00N 39°54' W 075°12'0 0.0
2017-Dec-18 09:30N 39°54' W 075°12'0 0.0
2017-Dec-18 09:01N 39°54' W 075°12'0 0.0
2017-Dec-18 08:30N 39°54' W 075°12'0 0.0
2017-Dec-18 08:00N 39°54' W 075°12'0 0.0
2017-Dec-18 07:31N 39°54' W 075°12'0 0.0
2017-Dec-18 07:00N 39°54' W 075°12'0 0.0
2017-Dec-18 06:31N 39°54' W 075°12'0 0.0
2017-Dec-18 06:00N 39°54' W 075°12'0 0.0
2017-Dec-18 05:30N 39°54' W 075°12'0 0.0
2017-Dec-18 05:00N 39°54' W 075°12'0 0.0
2017-Dec-18 04:30N 39°54' W 075°12'0 0.0
2017-Dec-18 04:00N 39°54' W 075°12'0 0.0
2017-Dec-18 03:31N 39°54' W 075°12'0 0.0
2017-Dec-18 03:01N 39°54' W 075°12'0 0.0
2017-Dec-18 02:30N 39°54' W 075°12'0 0.0
2017-Dec-18 02:01N 39°54' W 075°12'0 0.0
2017-Dec-18 01:31N 39°54' W 075°12'0 0.0
2017-Dec-18 01:01N 39°54' W 075°12'0 0.0
2017-Dec-18 00:30N 39°54' W 075°12'0 0.0
2017-Dec-18 00:00N 39°54' W 075°12'0 0.0
2017-Dec-17 23:31N 39°54' W 075°12'0 0.0
2017-Dec-17 23:01N 39°54' W 075°12'0 0.0
2017-Dec-17 22:31N 39°54' W 075°12'0 0.0
2017-Dec-17 22:00N 39°54' W 075°12'0 0.0
2017-Dec-17 21:30N 39°54' W 075°12'0 0.0
2017-Dec-17 21:00N 39°54' W 075°12'0 0.0
2017-Dec-17 20:31N 39°54' W 075°12'0 0.0
2017-Dec-17 20:01N 39°54' W 075°12'0 0.0
2017-Dec-17 19:30N 39°54' W 075°12'0 0.0
2017-Dec-17 19:01N 39°54' W 075°12'0 0.0
2017-Dec-17 18:30N 39°54' W 075°12'0 0.0
2017-Dec-17 18:00N 39°54' W 075°12'0 0.0
2017-Dec-17 17:30N 39°54' W 075°12'0 0.0
2017-Dec-17 17:01N 39°54' W 075°12'0 0.0
2017-Dec-17 16:30N 39°54' W 075°12'0 0.0
2017-Dec-17 16:01N 39°54' W 075°12'0 0.0
2017-Dec-17 15:31N 39°54' W 075°12'0 0.0
2017-Dec-17 15:00N 39°54' W 075°12'0 0.0
2017-Dec-17 14:30N 39°54' W 075°12'0 0.2
2017-Dec-17 14:00N 39°54' W 075°12'2 3.8
2017-Dec-17 13:30N 39°52' W 075°13'3 5.5
2017-Dec-17 13:00N 39°51' W 075°16'2 4.5
2017-Dec-17 12:30N 39°51' W 075°19'3 6.7
2017-Dec-17 12:00N 39°49' W 075°23'3 6.8
2017-Dec-17 11:30N 39°47' W 075°27'3 6.7
2017-Dec-17 11:00N 39°45' W 075°30'3 6.4
2017-Dec-17 10:30N 39°42' W 075°31'3 6.2
2017-Dec-17 10:00N 39°39' W 075°33'3 5.6
2017-Dec-17 09:30N 39°37' W 075°34'3 5.9
2017-Dec-17 09:00N 39°34' W 075°33'5 9.6
2017-Dec-17 08:30N 39°33' W 075°39'5 9.3
2017-Dec-17 08:00N 39°32' W 075°45'4 8.2
2017-Dec-17 07:30N 39°32' W 075°51'4 8.3
2017-Dec-17 07:00N 39°30' W 075°55'4 7.8
2017-Dec-17 06:30N 39°27' W 075°59'4 7.3
2017-Dec-17 06:00N 39°25' W 076°02'3 7.0
2017-Dec-17 05:30N 39°23' W 076°06'3 6.7
2017-Dec-17 05:00N 39°21' W 076°10'3 6.6
2017-Dec-17 04:30N 39°19' W 076°13'3 6.9
2017-Dec-17 04:00N 39°15' W 076°14'3 7.0
2017-Dec-17 03:30N 39°12' W 076°16'3 6.5
2017-Dec-17 03:00N 39°10' W 076°19'3 5.8
2017-Dec-17 02:29N 39°07' W 076°20'7 7.8
2017-Dec-17 01:34N 38°60' W 076°23'0 7.7
2017-Dec-17 01:30N 38°60' W 076°23'10 0.2
2017-Dec-15 01:00N 38°50' W 076°27'5 6.2
2017-Dec-15 00:13N 38°55' W 076°25'22 3.8
2017-Dec-14 18:30N 39°15' W 076°33'0 0.0
2017-Dec-14 18:00N 39°15' W 076°33'0 0.0
2017-Dec-14 17:30N 39°15' W 076°33'0 0.0
2017-Dec-14 17:00N 39°15' W 076°33'0 0.0
2017-Dec-14 16:30N 39°15' W 076°33'0 0.0
2017-Dec-14 16:00N 39°15' W 076°33'0 0.0
2017-Dec-14 15:00N 39°15' W 076°33'0 0.1
2017-Dec-14 14:30N 39°15' W 076°33'0 0.0
2017-Dec-14 14:00N 39°15' W 076°33'0 0.0
2017-Dec-14 13:30N 39°15' W 076°33'0 0.0
2017-Dec-14 13:00N 39°15' W 076°33'0 0.0
2017-Dec-14 12:30N 39°15' W 076°33'0 0.0
2017-Dec-14 12:00N 39°15' W 076°33'0 0.0
2017-Dec-14 11:30N 39°15' W 076°33'0 0.0
2017-Dec-14 11:00N 39°15' W 076°33'0 0.0
2017-Dec-14 10:30N 39°15' W 076°33'0 0.0
2017-Dec-14 10:00N 39°15' W 076°33'0 0.0
2017-Dec-14 09:30N 39°15' W 076°33'0 0.0
2017-Dec-14 09:00N 39°15' W 076°33'0 0.0
2017-Dec-14 08:30N 39°15' W 076°33'0 0.0
2017-Dec-14 08:00N 39°15' W 076°33'0 0.0
2017-Dec-14 07:30N 39°15' W 076°33'0 0.0
2017-Dec-14 07:00N 39°16' W 076°33'0 0.0
2017-Dec-14 06:30N 39°15' W 076°33'0 0.0
2017-Dec-14 06:00N 39°15' W 076°33'0 0.0
2017-Dec-14 05:30N 39°15' W 076°33'0 0.1
2017-Dec-14 04:58N 39°15' W 076°33'0 0.0
2017-Dec-14 04:19N 39°15' W 076°33'0 0.0
2017-Dec-14 03:49N 39°15' W 076°33'0 0.0
2017-Dec-14 03:29N 39°15' W 076°33'0 0.0
2017-Dec-14 02:57N 39°15' W 076°33'0 0.0
2017-Dec-14 02:24N 39°15' W 076°33'0 0.0
2017-Dec-14 01:32N 39°15' W 076°33'0 0.0
2017-Dec-14 01:19N 39°15' W 076°33'0 0.0
2017-Dec-14 00:50N 39°15' W 076°33'0 0.0
2017-Dec-14 00:29N 39°15' W 076°33'0 0.0
2017-Dec-13 23:55N 39°15' W 076°33'0 0.0
2017-Dec-13 23:19N 39°15' W 076°33'0 0.0
2017-Dec-13 22:57N 39°15' W 076°33'0 0.0
2017-Dec-13 22:25N 39°15' W 076°33'0 0.0
2017-Dec-13 22:00N 39°15' W 076°33'0 0.1
2017-Dec-13 21:30N 39°15' W 076°33'0 0.0
2017-Dec-13 20:58N 39°15' W 076°33'0 0.0
2017-Dec-13 20:30N 39°15' W 076°33'0 0.0
2017-Dec-13 20:00N 39°15' W 076°33'0 0.0
2017-Dec-13 19:30N 39°15' W 076°33'0 0.0
2017-Dec-13 19:00N 39°15' W 076°33'0 0.0
2017-Dec-13 18:30N 39°15' W 076°33'0 0.0
2017-Dec-13 17:59N 39°15' W 076°33'0 0.0
2017-Dec-13 17:30N 39°15' W 076°33'0 0.0
2017-Dec-13 17:00N 39°15' W 076°33'0 0.0
2017-Dec-13 16:30N 39°15' W 076°33'0 0.0
2017-Dec-13 16:00N 39°15' W 076°33'0 0.0
2017-Dec-13 15:30N 39°15' W 076°33'0 0.0
2017-Dec-13 15:00N 39°15' W 076°33'0 0.0
2017-Dec-13 14:30N 39°15' W 076°33'0 0.0
2017-Dec-13 14:00N 39°15' W 076°33'0 0.0
2017-Dec-13 13:30N 39°15' W 076°33'0 0.0
2017-Dec-13 13:00N 39°15' W 076°33'0 0.0
2017-Dec-13 12:30N 39°15' W 076°33'0 0.0
2017-Dec-13 11:59N 39°15' W 076°33'0 0.0
2017-Dec-13 11:30N 39°15' W 076°33'0 0.0
2017-Dec-13 11:00N 39°15' W 076°33'0 0.0
2017-Dec-13 10:30N 39°15' W 076°33'0 0.0
2017-Dec-13 10:00N 39°15' W 076°33'0 0.0
2017-Dec-13 09:30N 39°15' W 076°33'0 0.0
2017-Dec-13 09:00N 39°15' W 076°33'0 0.0
2017-Dec-13 08:30N 39°15' W 076°33'0 0.0
2017-Dec-13 08:00N 39°15' W 076°33'0 0.0
2017-Dec-13 07:30N 39°15' W 076°33'0 0.0
2017-Dec-13 07:00N 39°15' W 076°33'0 0.0
2017-Dec-13 06:30N 39°15' W 076°33'0 0.0
2017-Dec-13 06:00N 39°15' W 076°33'0 0.0
2017-Dec-13 05:30N 39°15' W 076°33'0 0.0
2017-Dec-13 05:00N 39°15' W 076°33'0 0.0
2017-Dec-13 04:30N 39°15' W 076°33'0 0.0
2017-Dec-13 04:00N 39°15' W 076°33'1 2.2
2017-Dec-13 03:30N 39°15' W 076°34'0 0.0
2017-Dec-13 03:00N 39°15' W 076°34'0 0.0
2017-Dec-13 02:30N 39°15' W 076°34'0 0.0
2017-Dec-13 02:00N 39°15' W 076°34'0 0.0
2017-Dec-13 01:30N 39°15' W 076°34'0 0.0
2017-Dec-13 01:00N 39°15' W 076°34'0 0.0
2017-Dec-13 00:30N 39°15' W 076°34'0 0.0
2017-Dec-13 00:00N 39°15' W 076°34'0 0.1
2017-Dec-12 23:30N 39°15' W 076°34'0 0.0
2017-Dec-12 23:00N 39°15' W 076°34'0 0.0
2017-Dec-12 22:30N 39°15' W 076°34'0 0.0
2017-Dec-12 22:00N 39°15' W 076°34'0 0.0
2017-Dec-12 21:30N 39°15' W 076°34'1 2.1
2017-Dec-12 21:00N 39°15' W 076°33'0 0.0
2017-Dec-12 20:30N 39°15' W 076°33'0 0.0
2017-Dec-12 20:00N 39°15' W 076°33'0 0.0
2017-Dec-12 19:30N 39°15' W 076°33'0 0.0
2017-Dec-12 19:00N 39°15' W 076°33'0 0.0
2017-Dec-12 18:30N 39°15' W 076°33'0 0.0
2017-Dec-12 18:00N 39°15' W 076°33'0 0.0
2017-Dec-12 17:30N 39°15' W 076°33'0 0.0
2017-Dec-12 17:00N 39°15' W 076°33'0 0.0
2017-Dec-12 16:30N 39°15' W 076°33'0 0.0
2017-Dec-12 16:00N 39°15' W 076°33'0 0.0
2017-Dec-12 15:30N 39°15' W 076°33'0 0.0
2017-Dec-12 15:00N 39°15' W 076°33'0 0.0
2017-Dec-12 14:30N 39°15' W 076°33'0 0.0
2017-Dec-12 14:00N 39°15' W 076°33'0 0.0
2017-Dec-12 13:30N 39°15' W 076°33'0 0.0
2017-Dec-12 13:00N 39°15' W 076°33'0 0.0
2017-Dec-12 12:30N 39°15' W 076°33'0 0.0
2017-Dec-12 12:00N 39°15' W 076°33'0 0.0
2017-Dec-12 11:30N 39°15' W 076°33'0 0.0
2017-Dec-12 10:54N 39°15' W 076°33'0 0.0
2017-Dec-12 10:30N 39°15' W 076°33'0 0.0
2017-Dec-12 09:59N 39°15' W 076°33'0 0.0
2017-Dec-12 09:28N 39°15' W 076°33'0 0.0
2017-Dec-12 09:00N 39°15' W 076°33'0 0.0
2017-Dec-12 08:30N 39°15' W 076°33'0 0.0
2017-Dec-12 07:58N 39°15' W 076°33'0 0.0
2017-Dec-12 07:30N 39°15' W 076°33'0 0.0
2017-Dec-12 07:00N 39°15' W 076°33'0 0.0
2017-Dec-12 06:30N 39°15' W 076°33'0 0.0
2017-Dec-12 05:59N 39°15' W 076°33'0 0.0
2017-Dec-12 05:30N 39°15' W 076°33'0 0.0
2017-Dec-12 05:00N 39°15' W 076°33'0 0.0
2017-Dec-12 04:30N 39°15' W 076°33'1 2.9
2017-Dec-12 04:00N 39°14' W 076°33'4 7.9
2017-Dec-12 03:30N 39°12' W 076°29'3 6.4
2017-Dec-12 03:00N 39°12' W 076°25'4 6.5
2017-Dec-12 02:20N 39°14' W 076°20'3 6.7
2017-Dec-12 01:51N 39°16' W 076°16'4 7.4
2017-Dec-12 01:19N 39°19' W 076°13'3 8.8
2017-Dec-12 01:00N 39°21' W 076°11'4 8.8
2017-Dec-12 00:30N 39°23' W 076°06'4 8.3
2017-Dec-12 00:00N 39°25' W 076°01'4 8.3
2017-Dec-11 23:30N 39°28' W 075°58'4 7.8
2017-Dec-11 23:00N 39°31' W 075°54'4 7.1
2017-Dec-11 22:30N 39°32' W 075°49'3 6.0
2017-Dec-11 22:00N 39°32' W 075°45'3 6.8
2017-Dec-11 21:30N 39°33' W 075°41'3 6.3
2017-Dec-11 21:01N 39°33' W 075°37'3 6.1
2017-Dec-11 20:30N 39°34' W 075°33'2 4.5
2017-Dec-11 20:00N 39°35' W 075°36'0 0.0
2017-Dec-11 19:30N 39°35' W 075°36'0 0.0
2017-Dec-11 19:00N 39°35' W 075°36'0 0.0
2017-Dec-11 18:30N 39°35' W 075°36'0 0.0
2017-Dec-11 18:00N 39°35' W 075°36'0 0.0
2017-Dec-11 17:30N 39°35' W 075°36'0 0.0
2017-Dec-11 17:00N 39°35' W 075°36'0 0.0
2017-Dec-11 16:31N 39°35' W 075°36'0 0.0
2017-Dec-11 16:00N 39°35' W 075°36'0 0.0
2017-Dec-11 15:30N 39°35' W 075°36'0 0.0
2017-Dec-11 15:00N 39°35' W 075°36'0 0.0
2017-Dec-11 14:30N 39°35' W 075°36'0 0.0
2017-Dec-11 14:00N 39°35' W 075°36'0 0.0
2017-Dec-11 13:30N 39°35' W 075°36'0 0.0
2017-Dec-11 13:00N 39°35' W 075°36'0 0.0
2017-Dec-11 12:30N 39°35' W 075°36'0 0.0
2017-Dec-11 12:00N 39°35' W 075°36'0 0.0
2017-Dec-11 11:30N 39°35' W 075°36'0 0.0
2017-Dec-11 11:00N 39°35' W 075°36'0 0.0
2017-Dec-11 10:30N 39°35' W 075°36'0 0.0
2017-Dec-11 10:00N 39°35' W 075°36'0 0.0
2017-Dec-11 09:30N 39°35' W 075°36'0 0.0
2017-Dec-11 09:00N 39°35' W 075°36'0 0.0
2017-Dec-11 08:30N 39°35' W 075°36'0 0.0
2017-Dec-11 08:00N 39°35' W 075°36'0 0.0
2017-Dec-11 07:30N 39°35' W 075°36'0 0.0
2017-Dec-11 07:00N 39°35' W 075°36'0 0.0
2017-Dec-11 06:30N 39°35' W 075°36'0 0.1
2017-Dec-11 06:01N 39°35' W 075°36'2 4.3
2017-Dec-11 05:30N 39°34' W 075°33'0 0.6
2017-Dec-11 05:00N 39°35' W 075°33'0 0.0
2017-Dec-11 04:30N 39°35' W 075°33'0 0.0
2017-Dec-11 04:00N 39°35' W 075°33'0 0.0
2017-Dec-11 03:30N 39°35' W 075°33'0 0.0
2017-Dec-11 03:00N 39°35' W 075°33'0 0.0
2017-Dec-11 02:31N 39°35' W 075°33'0 0.1
2017-Dec-11 02:00N 39°35' W 075°33'0 0.1
2017-Dec-11 01:30N 39°35' W 075°33'0 0.1
2017-Dec-11 01:00N 39°35' W 075°33'0 0.1
2017-Dec-11 00:30N 39°35' W 075°33'0 0.0
2017-Dec-11 00:00N 39°35' W 075°33'0 0.0
2017-Dec-10 23:30N 39°35' W 075°33'0 0.0
2017-Dec-10 23:00N 39°35' W 075°33'0 0.0
2017-Dec-10 22:30N 39°35' W 075°33'0 0.0
2017-Dec-10 22:00N 39°35' W 075°33'0 0.0
2017-Dec-10 21:30N 39°35' W 075°33'0 0.0
2017-Dec-10 21:00N 39°35' W 075°33'0 0.0
2017-Dec-10 20:30N 39°35' W 075°33'0 0.0
2017-Dec-10 20:00N 39°35' W 075°33'0 0.0
2017-Dec-10 19:30N 39°35' W 075°33'0 0.1
2017-Dec-10 19:00N 39°35' W 075°33'0 0.0
2017-Dec-10 18:30N 39°35' W 075°33'0 0.1
2017-Dec-10 18:00N 39°35' W 075°33'0 0.0
2017-Dec-10 17:30N 39°35' W 075°33'0 0.0
2017-Dec-10 17:00N 39°35' W 075°33'0 0.0
2017-Dec-10 16:30N 39°35' W 075°33'0 0.0
2017-Dec-10 16:00N 39°35' W 075°33'0 0.0
2017-Dec-10 15:30N 39°35' W 075°33'0 0.0
2017-Dec-10 15:00N 39°35' W 075°33'0 0.0
2017-Dec-10 14:30N 39°35' W 075°33'0 0.0
2017-Dec-10 14:00N 39°35' W 075°33'0 0.0
2017-Dec-10 13:30N 39°35' W 075°33'0 0.0
2017-Dec-10 13:00N 39°35' W 075°33'0 0.0
2017-Dec-10 12:30N 39°35' W 075°33'0 0.0
2017-Dec-10 12:00N 39°35' W 075°33'0 0.0
2017-Dec-10 11:30N 39°35' W 075°33'0 0.0
2017-Dec-10 11:00N 39°35' W 075°33'0 0.1
2017-Dec-10 10:30N 39°35' W 075°33'0 0.0
2017-Dec-10 10:00N 39°35' W 075°33'0 0.1
2017-Dec-10 09:30N 39°35' W 075°33'0 0.1
2017-Dec-10 09:00N 39°35' W 075°33'0 0.0
2017-Dec-10 08:30N 39°35' W 075°33'0 0.0
2017-Dec-10 08:00N 39°35' W 075°33'0 0.0
2017-Dec-10 07:30N 39°35' W 075°33'0 0.1
2017-Dec-10 07:00N 39°35' W 075°33'0 0.2
2017-Dec-10 06:30N 39°35' W 075°33'0 0.1
2017-Dec-10 06:00N 39°35' W 075°33'0 0.1
2017-Dec-10 05:30N 39°35' W 075°33'0 0.0
2017-Dec-10 05:00N 39°35' W 075°33'0 0.0
2017-Dec-10 04:30N 39°35' W 075°33'0 0.0
2017-Dec-10 04:00N 39°35' W 075°33'0 0.0
2017-Dec-10 03:30N 39°35' W 075°33'0 0.0
2017-Dec-10 03:00N 39°35' W 075°33'0 0.0
2017-Dec-10 02:30N 39°35' W 075°33'0 0.0
2017-Dec-10 02:00N 39°35' W 075°33'0 0.0
2017-Dec-10 01:30N 39°35' W 075°33'0 0.0
2017-Dec-10 01:00N 39°35' W 075°33'0 0.0
2017-Dec-10 00:30N 39°35' W 075°33'0 0.0
2017-Dec-10 00:00N 39°35' W 075°33'0 0.1
2017-Dec-09 23:30N 39°35' W 075°33'0 0.0
2017-Dec-09 23:00N 39°35' W 075°33'0 0.0
2017-Dec-09 22:30N 39°35' W 075°33'0 0.3
2017-Dec-09 22:00N 39°35' W 075°33'0 0.2
2017-Dec-09 21:30N 39°35' W 075°33'0 0.0
2017-Dec-09 21:00N 39°35' W 075°33'0 0.0
2017-Dec-09 20:30N 39°35' W 075°33'0 0.0
2017-Dec-09 20:00N 39°35' W 075°33'0 0.0
2017-Dec-09 19:30N 39°35' W 075°33'0 0.0
2017-Dec-09 19:00N 39°35' W 075°33'0 0.0
2017-Dec-09 18:30N 39°35' W 075°33'0 0.2
2017-Dec-09 18:00N 39°35' W 075°33'0 0.2
2017-Dec-09 17:30N 39°35' W 075°33'0 0.1
2017-Dec-09 17:00N 39°35' W 075°33'0 0.0
2017-Dec-09 16:30N 39°35' W 075°33'0 0.0
2017-Dec-09 16:00N 39°35' W 075°33'0 0.0
2017-Dec-09 15:30N 39°35' W 075°33'0 0.0
2017-Dec-09 15:00N 39°35' W 075°33'0 0.0
2017-Dec-09 14:30N 39°35' W 075°33'0 0.0
2017-Dec-09 14:00N 39°35' W 075°33'0 0.0
2017-Dec-09 13:30N 39°35' W 075°33'0 0.0
2017-Dec-09 13:01N 39°35' W 075°33'0 0.0
2017-Dec-09 12:30N 39°35' W 075°33'0 0.0
2017-Dec-09 12:00N 39°35' W 075°33'0 0.1
2017-Dec-09 11:30N 39°35' W 075°33'0 0.1
2017-Dec-09 11:00N 39°35' W 075°33'0 0.2
2017-Dec-09 10:30N 39°35' W 075°33'0 0.1
2017-Dec-09 10:00N 39°35' W 075°33'0 0.0
2017-Dec-09 09:30N 39°35' W 075°33'1 2.1
2017-Dec-09 09:00N 39°34' W 075°33'4 7.8
2017-Dec-09 08:30N 39°33' W 075°38'4 7.9
2017-Dec-09 08:00N 39°33' W 075°44'4 8.4
2017-Dec-09 07:30N 39°32' W 075°49'4 8.1
2017-Dec-09 07:00N 39°31' W 075°54'4 8.8
2017-Dec-09 06:30N 39°28' W 075°58'4 8.9
2017-Dec-09 06:00N 39°25' W 076°02'5 9.0
2017-Dec-09 05:30N 39°22' W 076°07'5 9.3
2017-Dec-09 05:00N 39°19' W 076°12'4 8.6
2017-Dec-09 04:30N 39°16' W 076°16'5 8.5
2017-Dec-09 03:58N 39°14' W 076°21'5 8.3
2017-Dec-09 03:24N 39°11' W 076°26'3 7.9
2017-Dec-09 03:00N 39°12' W 076°30'4 8.2
2017-Dec-09 02:31N 39°15' W 076°33'1 1.2
2017-Dec-09 02:01N 39°15' W 076°34'0 0.1
2017-Dec-09 01:30N 39°15' W 076°34'0 0.0
2017-Dec-09 01:00N 39°15' W 076°34'0 0.0
2017-Dec-09 00:30N 39°15' W 076°34'0 0.0
2017-Dec-09 00:00N 39°15' W 076°34'0 0.0
2017-Dec-08 23:30N 39°15' W 076°34'0 0.0
2017-Dec-08 23:00N 39°15' W 076°34'0 0.0
2017-Dec-08 22:30N 39°15' W 076°34'0 0.0
2017-Dec-08 22:00N 39°15' W 076°34'0 0.0
2017-Dec-08 21:30N 39°15' W 076°34'0 0.0
2017-Dec-08 21:00N 39°15' W 076°34'1 1.3
2017-Dec-08 20:30N 39°14' W 076°33'1 2.1
2017-Dec-08 20:00N 39°15' W 076°33'0 0.2
2017-Dec-08 19:30N 39°16' W 076°33'0 0.0
2017-Dec-08 19:00N 39°16' W 076°33'1 2.4
2017-Dec-08 18:30N 39°15' W 076°34'0 0.0
2017-Dec-08 18:00N 39°15' W 076°34'0 0.0
2017-Dec-08 17:30N 39°15' W 076°34'0 0.0
2017-Dec-08 17:00N 39°15' W 076°34'  

Dump ship's entire track history